X  Fermer Données météorologiques d'aviation de Metar     KOMA Eppley Airfield
Température
73°F Température
68°F Point de rosée
83% Humidité



Vitesse
9 MPH
14 KM/H
4 M/S
8 KTS



120°
ESE
Conditions actuelles

Partiellement nuageux Partiellement nuageux
Pression 1011.82 (hPa) - 29.88 (inHg)
Visibilité 10 (mile) - 16.1 (km)
Aéroport
Code de l'aéroport KOMA

Emplacement: Eppley Airfield
Distance: 20 (mi)

Metar:
KOMA 060352Z 12008KT 10SM FEW150 BKN200 23/20 A2988 RMK AO2 SLP107 T02330200 $

Temps: 07-05-2022 22:52 CDT